createdAt,value
2023-01-17T00:02:25.173Z,87.53
2023-01-17T00:05:10.451Z,87.15
2023-01-17T00:07:55.865Z,87.40
2023-01-17T00:10:24.878Z,87.40
2023-01-17T00:12:53.990Z,87.12
2023-01-17T00:15:22.903Z,87.72
2023-01-17T00:17:50.196Z,87.64
2023-01-17T00:20:37.683Z,87.91
2023-01-17T00:23:30.604Z,87.14
2023-01-17T00:26:03.053Z,86.45
2023-01-17T00:28:40.712Z,86.37
2023-01-17T00:31:09.050Z,85.91
2023-01-17T00:33:35.742Z,85.42
2023-01-17T00:36:03.627Z,86.46
2023-01-17T00:38:32.994Z,86.25
2023-01-17T00:41:05.210Z,86.36
2023-01-17T00:43:50.873Z,85.98
2023-01-17T00:46:36.806Z,85.10
2023-01-17T00:49:21.952Z,86.11
2023-01-17T00:52:07.340Z,85.76
2023-01-17T00:54:52.820Z,84.63
2023-01-17T00:57:37.865Z,84.62
2023-01-17T01:00:23.664Z,85.00
2023-01-17T01:03:09.319Z,83.63
2023-01-17T01:05:55.959Z,83.78
2023-01-17T01:08:46.827Z,83.66
2023-01-17T01:11:35.291Z,82.68
2023-01-17T01:14:21.268Z,81.36
2023-01-17T01:17:06.576Z,81.99
2023-01-17T01:19:52.606Z,81.20
2023-01-17T01:22:38.075Z,81.30
2023-01-17T01:25:24.032Z,81.57
2023-01-17T01:28:09.617Z,83.10
2023-01-17T01:30:55.055Z,83.63
2023-01-17T01:33:21.647Z,82.61
2023-01-17T01:35:53.875Z,83.23
2023-01-17T01:38:23.091Z,83.57
2023-01-17T01:40:53.086Z,81.73
2023-01-17T01:43:44.984Z,77.38
2023-01-17T01:46:16.661Z,80.19
2023-01-17T01:49:17.455Z,79.52
2023-01-17T01:51:53.151Z,79.89
2023-01-17T01:54:28.251Z,79.84
2023-01-17T01:56:57.757Z,79.67
2023-01-17T01:59:25.807Z,78.93
2023-01-17T02:01:55.868Z,77.66
2023-01-17T02:04:23.411Z,75.78
2023-01-17T02:06:56.012Z,76.13
2023-01-17T02:09:23.646Z,75.03
2023-01-17T02:11:50.451Z,75.20
2023-01-17T02:14:18.422Z,76.88
2023-01-17T02:17:02.958Z,77.92
2023-01-17T02:20:04.256Z,76.51
2023-01-17T02:23:14.830Z,77.23
2023-01-17T02:26:29.551Z,77.15
2023-01-17T02:29:28.414Z,75.44
2023-01-17T02:32:09.528Z,74.26
2023-01-17T02:34:51.290Z,73.54
2023-01-17T02:37:34.785Z,74.74
2023-01-17T02:40:08.747Z,76.56
2023-01-17T02:42:42.656Z,76.38
2023-01-17T02:45:14.721Z,76.37
2023-01-17T02:47:41.346Z,77.10
2023-01-17T02:50:12.347Z,77.00
2023-01-17T02:53:32.546Z,75.29
2023-01-17T02:56:48.349Z,78.16
2023-01-17T02:59:27.295Z,78.13
2023-01-17T03:02:17.013Z,75.78
2023-01-17T03:05:01.641Z,76.17
2023-01-17T03:07:29.873Z,75.95
2023-01-17T03:10:00.895Z,74.85
2023-01-17T03:12:29.713Z,77.20
2023-01-17T03:14:56.414Z,77.63
2023-01-17T03:17:28.305Z,76.02
2023-01-17T03:19:54.958Z,76.59
2023-01-17T03:22:21.615Z,76.12
2023-01-17T03:24:48.256Z,76.33
2023-01-17T03:27:14.970Z,76.35
2023-01-17T03:29:41.601Z,77.28
2023-01-17T03:32:08.191Z,76.42
2023-01-17T03:34:34.814Z,77.02
2023-01-17T03:37:01.476Z,76.70
2023-01-17T03:39:28.183Z,76.83
2023-01-17T03:41:54.779Z,77.99
2023-01-17T03:44:21.395Z,77.65
2023-01-17T03:46:48.002Z,77.54
2023-01-17T03:49:15.070Z,76.43
2023-01-17T03:51:41.708Z,78.05
2023-01-17T03:54:08.584Z,77.93
2023-01-17T03:56:35.212Z,78.21
2023-01-17T03:59:02.017Z,77.46
2023-01-17T04:01:28.844Z,77.86
2023-01-17T04:03:55.509Z,77.49
2023-01-17T04:06:22.181Z,77.85
2023-01-17T04:08:48.868Z,77.45
2023-01-17T04:11:15.536Z,75.92
2023-01-17T04:13:42.170Z,76.82
2023-01-17T04:16:14.312Z,76.77
2023-01-17T04:18:41.191Z,75.93
2023-01-17T04:21:08.233Z,76.99
2023-01-17T04:23:35.317Z,76.91
2023-01-17T04:26:03.614Z,75.45
2023-01-17T04:28:31.759Z,76.54
2023-01-17T04:30:59.966Z,76.04
2023-01-17T04:33:26.826Z,76.48
2023-01-17T04:35:54.330Z,76.73
2023-01-17T04:38:23.808Z,76.16
2023-01-17T04:40:51.408Z,76.16
2023-01-17T04:43:18.088Z,75.92
2023-01-17T04:45:44.749Z,77.14
2023-01-17T04:48:12.708Z,77.33
2023-01-17T04:50:40.255Z,75.95
2023-01-17T04:53:06.927Z,74.96
2023-01-17T04:55:33.545Z,75.96
2023-01-17T04:58:00.180Z,74.30
2023-01-17T05:00:26.776Z,75.28
2023-01-17T05:02:53.507Z,75.08
2023-01-17T05:05:20.246Z,75.75
2023-01-17T05:07:54.461Z,75.43
2023-01-17T05:10:21.080Z,75.00
2023-01-17T05:12:58.948Z,75.64
2023-01-17T05:15:26.743Z,74.80
2023-01-17T05:17:54.149Z,75.72
2023-01-17T05:20:22.393Z,76.41
2023-01-17T05:22:56.399Z,77.62
2023-01-17T05:25:24.707Z,76.22
2023-01-17T05:27:51.529Z,77.07
2023-01-17T05:30:18.859Z,75.89
2023-01-17T05:32:49.273Z,76.35
2023-01-17T05:35:19.604Z,76.90
2023-01-17T05:37:49.118Z,75.69
2023-01-17T05:40:27.327Z,74.53
2023-01-17T05:42:56.015Z,74.58
2023-01-17T05:45:24.671Z,74.74
2023-01-17T05:47:53.172Z,74.93
2023-01-17T05:50:29.174Z,74.66
2023-01-17T05:53:01.941Z,74.39
2023-01-17T05:55:29.181Z,75.01
2023-01-17T05:57:56.155Z,76.01
2023-01-17T06:00:23.365Z,74.46
2023-01-17T06:02:50.295Z,73.08
2023-01-17T06:05:17.154Z,72.68
2023-01-17T06:07:45.505Z,72.14
2023-01-17T06:10:16.387Z,72.56
2023-01-17T06:12:44.317Z,72.15
2023-01-17T06:15:12.409Z,72.52
2023-01-17T06:17:39.385Z,72.86
2023-01-17T06:20:08.613Z,71.15
2023-01-17T06:22:35.647Z,70.42
2023-01-17T06:25:02.238Z,71.31
2023-01-17T06:27:28.949Z,71.92
2023-01-17T06:29:55.574Z,72.84
2023-01-17T06:32:22.206Z,71.59
2023-01-17T06:34:48.828Z,72.88
2023-01-17T06:37:15.502Z,72.85
2023-01-17T06:39:42.294Z,71.86
2023-01-17T06:42:08.937Z,71.63
2023-01-17T06:44:35.559Z,73.53
2023-01-17T06:47:02.194Z,74.05
2023-01-17T06:49:28.792Z,71.93
2023-01-17T06:51:55.433Z,73.66
2023-01-17T06:54:22.084Z,74.14
2023-01-17T06:56:48.687Z,74.67
2023-01-17T06:59:15.298Z,75.26
2023-01-17T07:01:41.964Z,76.56
2023-01-17T07:04:08.712Z,77.63
2023-01-17T07:06:36.575Z,76.22
2023-01-17T07:09:04.313Z,76.02
2023-01-17T07:11:31.881Z,76.55
2023-01-17T07:13:58.718Z,76.50
2023-01-17T07:16:25.534Z,75.85
2023-01-17T07:18:54.710Z,76.54
2023-01-17T07:21:21.435Z,77.21
2023-01-17T07:23:48.693Z,77.90
2023-01-17T07:26:17.300Z,77.56
2023-01-17T07:28:44.192Z,78.02
2023-01-17T07:31:11.035Z,77.79
2023-01-17T07:33:37.762Z,76.65
2023-01-17T07:36:08.582Z,76.73
2023-01-17T07:38:35.547Z,76.97
2023-01-17T07:41:02.685Z,77.08
2023-01-17T07:43:29.401Z,77.93
2023-01-17T07:45:56.158Z,78.12
2023-01-17T07:48:24.598Z,79.46
2023-01-17T07:50:57.310Z,79.88
2023-01-17T07:53:26.529Z,79.43
2023-01-17T07:55:53.838Z,79.50
2023-01-17T07:58:20.989Z,78.89
2023-01-17T08:00:48.045Z,78.98
2023-01-17T08:03:17.398Z,78.75
2023-01-17T08:05:52.968Z,78.40
2023-01-17T08:08:19.800Z,79.26
2023-01-17T08:10:46.458Z,77.99
2023-01-17T08:13:13.136Z,75.63
2023-01-17T08:15:39.775Z,77.98
2023-01-17T08:18:06.376Z,76.31
2023-01-17T08:20:33.021Z,76.81
2023-01-17T08:22:59.845Z,75.48
2023-01-17T08:25:26.848Z,76.96
2023-01-17T08:27:58.010Z,76.97
2023-01-17T08:30:25.889Z,77.45
2023-01-17T08:32:52.779Z,76.58
2023-01-17T08:35:20.220Z,76.65
2023-01-17T08:37:47.917Z,76.06
2023-01-17T08:40:17.576Z,75.08
2023-01-17T08:42:44.296Z,76.37
2023-01-17T08:45:12.178Z,74.66
2023-01-17T08:47:38.928Z,73.57
2023-01-17T08:50:06.955Z,73.69
2023-01-17T08:52:33.876Z,73.83
2023-01-17T08:55:00.536Z,72.65
2023-01-17T08:57:27.502Z,70.98
2023-01-17T08:59:54.100Z,70.82
2023-01-17T09:02:20.749Z,71.14
2023-01-17T09:04:48.936Z,70.41
2023-01-17T09:07:17.495Z,73.22
2023-01-17T09:09:44.618Z,70.58
2023-01-17T09:12:11.244Z,72.48
2023-01-17T09:14:38.369Z,71.05
2023-01-17T09:17:07.998Z,72.33
2023-01-17T09:19:35.507Z,70.17
2023-01-17T09:22:04.233Z,70.58
2023-01-17T09:24:32.713Z,70.43
2023-01-17T09:26:59.966Z,73.16
2023-01-17T09:29:26.662Z,69.73
2023-01-17T09:31:53.277Z,70.86
2023-01-17T09:34:19.978Z,66.48
2023-01-17T09:36:46.693Z,68.43
2023-01-17T09:39:15.292Z,71.10
2023-01-17T09:42:19.794Z,71.23
2023-01-17T09:44:51.467Z,71.56
2023-01-17T09:47:52.537Z,69.14
2023-01-17T09:50:37.347Z,70.87
2023-01-17T09:53:11.287Z,70.12
2023-01-17T09:55:49.060Z,69.45
2023-01-17T09:58:21.910Z,71.17
2023-01-17T10:01:27.679Z,71.50
2023-01-17T10:04:20.543Z,70.39
2023-01-17T10:07:38.406Z,70.44
2023-01-17T10:10:47.347Z,69.17
2023-01-17T10:13:42.247Z,66.56
2023-01-17T10:16:37.870Z,67.05
2023-01-17T10:19:28.168Z,69.76
2023-01-17T10:22:12.587Z,73.02
2023-01-17T10:25:20.078Z,74.25
2023-01-17T10:28:03.194Z,74.11
2023-01-17T10:30:49.109Z,73.48
2023-01-17T10:33:28.691Z,67.86
2023-01-17T10:36:15.381Z,69.58
2023-01-17T10:38:47.442Z,69.55
2023-01-17T10:41:29.961Z,65.57
2023-01-17T10:44:23.368Z,65.75
2023-01-17T10:47:04.214Z,67.53
2023-01-17T10:49:31.078Z,68.98
2023-01-17T10:52:11.561Z,71.41
2023-01-17T10:55:10.080Z,70.60
2023-01-17T10:57:43.237Z,69.42
2023-01-17T11:00:44.346Z,70.08
2023-01-17T11:03:16.385Z,70.24
2023-01-17T11:05:43.537Z,71.94
2023-01-17T11:08:13.615Z,69.76
2023-01-17T11:10:44.580Z,72.46
2023-01-17T11:13:38.729Z,73.10
2023-01-17T11:16:09.952Z,72.97
2023-01-17T11:18:39.600Z,72.05
2023-01-17T11:21:17.405Z,72.70
2023-01-17T11:23:49.693Z,72.61
2023-01-17T11:26:34.389Z,72.78
2023-01-17T11:29:38.854Z,72.10
2023-01-17T11:32:32.016Z,71.34
2023-01-17T11:35:32.463Z,72.65
2023-01-17T11:38:07.783Z,72.46
2023-01-17T11:40:47.622Z,72.24
2023-01-17T11:43:21.117Z,71.94
2023-01-17T11:46:15.454Z,73.13
2023-01-17T11:48:46.545Z,71.64
2023-01-17T11:51:31.271Z,72.07
2023-01-17T11:54:16.592Z,71.52
2023-01-17T11:56:46.270Z,72.58
2023-01-17T11:59:22.105Z,72.58
2023-01-17T12:02:46.846Z,72.29
2023-01-17T12:05:42.339Z,73.32
2023-01-17T12:08:30.401Z,73.53
2023-01-17T12:11:10.202Z,74.06
2023-01-17T12:14:22.337Z,73.33
2023-01-17T12:17:19.515Z,73.27
2023-01-17T12:20:01.604Z,73.90
2023-01-17T12:23:08.906Z,73.87
2023-01-17T12:26:25.004Z,73.87
2023-01-17T12:29:21.627Z,74.55
2023-01-17T12:32:06.817Z,74.19
2023-01-17T12:34:43.601Z,73.67
2023-01-17T12:37:24.701Z,74.63
2023-01-17T12:40:03.409Z,73.92
2023-01-17T12:42:37.047Z,74.15
2023-01-17T12:45:24.496Z,74.40
2023-01-17T12:47:59.061Z,74.17
2023-01-17T12:50:41.085Z,74.33
2023-01-17T12:53:18.189Z,74.55
2023-01-17T12:56:28.577Z,74.51
2023-01-17T12:59:04.147Z,74.50
2023-01-17T13:01:43.136Z,74.98
2023-01-17T13:04:46.924Z,75.14
2023-01-17T13:07:42.721Z,75.20
2023-01-17T13:10:25.103Z,75.29
2023-01-17T13:12:54.671Z,74.96
2023-01-17T13:15:28.448Z,74.90
2023-01-17T13:18:09.470Z,75.13
2023-01-17T13:20:56.252Z,74.56
2023-01-17T13:23:30.736Z,74.56
2023-01-17T13:25:59.882Z,74.69
2023-01-17T13:28:42.710Z,74.74
2023-01-17T13:31:20.411Z,75.13
2023-01-17T13:34:08.906Z,75.16
2023-01-17T13:37:20.651Z,74.62
2023-01-17T13:40:16.783Z,75.00
2023-01-17T13:43:00.097Z,74.35
2023-01-17T13:45:34.865Z,74.47
2023-01-17T13:48:25.694Z,75.47
2023-01-17T13:51:06.065Z,75.69
2023-01-17T13:53:35.685Z,76.55
2023-01-17T13:56:27.756Z,75.91
2023-01-17T13:59:02.098Z,75.01
2023-01-17T14:01:38.359Z,75.39
2023-01-17T14:04:10.588Z,74.85
2023-01-17T14:06:46.431Z,75.25
2023-01-17T14:09:19.207Z,74.83
2023-01-17T14:12:02.429Z,74.55
2023-01-17T14:14:46.487Z,74.56
2023-01-17T14:17:23.133Z,72.32
2023-01-17T14:19:52.693Z,74.00
2023-01-17T14:22:30.089Z,74.73
2023-01-17T14:25:19.014Z,74.82
2023-01-17T14:27:50.322Z,74.44
2023-01-17T14:30:36.639Z,73.73
2023-01-17T14:33:12.716Z,73.20
2023-01-17T14:35:49.822Z,74.25
2023-01-17T14:38:22.005Z,75.27
2023-01-17T14:41:15.786Z,74.98
2023-01-17T14:43:43.703Z,74.30
2023-01-17T14:46:21.725Z,74.66
2023-01-17T14:48:48.550Z,74.43
2023-01-17T14:51:21.322Z,75.79
2023-01-17T14:53:59.308Z,75.41
2023-01-17T14:56:28.226Z,75.92
2023-01-17T14:59:27.144Z,75.43
2023-01-17T15:02:08.268Z,77.26
2023-01-17T15:04:39.466Z,76.92
2023-01-17T15:07:07.436Z,75.80
2023-01-17T15:09:37.491Z,75.66
2023-01-17T15:12:08.052Z,76.32
2023-01-17T15:14:38.449Z,76.34
2023-01-17T15:17:18.542Z,77.05
2023-01-17T15:19:53.914Z,76.69
2023-01-17T15:22:20.901Z,77.09
2023-01-17T15:24:49.185Z,76.97
2023-01-17T15:27:16.970Z,77.30
2023-01-17T15:29:45.434Z,76.46
2023-01-17T15:32:19.938Z,76.64
2023-01-17T15:34:49.058Z,78.18
2023-01-17T15:37:34.709Z,78.16
2023-01-17T15:40:22.789Z,78.04
2023-01-17T15:42:53.274Z,78.36
2023-01-17T15:45:24.394Z,76.68
2023-01-17T15:47:51.082Z,77.07
2023-01-17T15:50:30.582Z,76.80
2023-01-17T15:53:02.809Z,77.72
2023-01-17T15:55:48.120Z,76.45
2023-01-17T15:58:27.189Z,77.74
2023-01-17T16:00:54.241Z,78.06
2023-01-17T16:03:31.812Z,77.83
2023-01-17T16:06:01.184Z,78.54
2023-01-17T16:08:39.679Z,78.56
2023-01-17T16:11:08.166Z,78.00
2023-01-17T16:13:42.224Z,78.33
2023-01-17T16:16:24.584Z,77.79
2023-01-17T16:18:59.121Z,77.64
2023-01-17T16:21:29.445Z,77.85
2023-01-17T16:23:56.523Z,78.36
2023-01-17T16:26:25.686Z,78.41
2023-01-17T16:28:52.384Z,78.93
2023-01-17T16:31:19.519Z,78.81
2023-01-17T16:33:49.109Z,79.09
2023-01-17T16:36:16.679Z,79.05
2023-01-17T16:38:45.483Z,79.40
2023-01-17T16:41:12.400Z,79.43
2023-01-17T16:43:39.050Z,78.84
2023-01-17T16:46:06.129Z,79.66
2023-01-17T16:48:32.800Z,79.84
2023-01-17T16:50:59.582Z,78.30
2023-01-17T16:53:28.204Z,79.14
2023-01-17T16:56:05.276Z,79.39
2023-01-17T16:58:31.907Z,80.89
2023-01-17T17:01:00.277Z,80.57
2023-01-17T17:03:27.031Z,79.86
2023-01-17T17:05:58.538Z,79.85
2023-01-17T17:08:25.341Z,80.44
2023-01-17T17:10:52.111Z,80.23
2023-01-17T17:13:18.788Z,80.44
2023-01-17T17:15:45.748Z,81.01
2023-01-17T17:18:17.249Z,81.38
2023-01-17T17:20:44.760Z,79.76
2023-01-17T17:23:11.596Z,80.72
2023-01-17T17:25:38.710Z,80.85
2023-01-17T17:28:06.120Z,81.26
2023-01-17T17:30:33.383Z,81.88
2023-01-17T17:33:00.168Z,81.54
2023-01-17T17:35:26.946Z,81.45
2023-01-17T17:37:54.037Z,82.01
2023-01-17T17:40:20.894Z,81.93
2023-01-17T17:42:47.494Z,82.24
2023-01-17T17:45:14.214Z,82.48
2023-01-17T17:47:40.791Z,82.59
2023-01-17T17:50:08.166Z,82.46
2023-01-17T17:52:34.986Z,82.86
2023-01-17T17:55:01.612Z,82.34
2023-01-17T17:57:28.162Z,82.65
2023-01-17T17:59:56.770Z,83.34
2023-01-17T18:02:23.455Z,82.91
2023-01-17T18:04:50.292Z,82.62
2023-01-17T18:07:17.162Z,82.70
2023-01-17T18:09:43.795Z,82.70
2023-01-17T18:12:10.373Z,82.75
2023-01-17T18:14:37.023Z,83.21
2023-01-17T18:17:03.652Z,83.10
2023-01-17T18:19:30.286Z,83.19
2023-01-17T18:21:58.119Z,84.31
2023-01-17T18:24:27.145Z,83.90
2023-01-17T18:26:57.684Z,83.50
2023-01-17T18:29:26.034Z,83.68
2023-01-17T18:31:53.831Z,83.22
2023-01-17T18:34:29.024Z,83.93
2023-01-17T18:36:55.859Z,84.37
2023-01-17T18:39:29.866Z,84.01
2023-01-17T18:41:56.705Z,84.44
2023-01-17T18:44:23.360Z,84.24
2023-01-17T18:46:52.469Z,83.88
2023-01-17T18:49:19.524Z,84.67
2023-01-17T18:51:50.404Z,84.21
2023-01-17T18:54:18.128Z,84.56
2023-01-17T18:56:44.813Z,84.64
2023-01-17T18:59:12.988Z,84.16
2023-01-17T19:01:43.551Z,84.36
2023-01-17T19:04:12.133Z,83.72
2023-01-17T19:06:41.290Z,84.80
2023-01-17T19:09:09.331Z,85.27
2023-01-17T19:11:36.753Z,84.64
2023-01-17T19:14:04.055Z,84.18
2023-01-17T19:16:34.699Z,84.54
2023-01-17T19:19:03.955Z,85.14
2023-01-17T19:21:31.077Z,85.93
2023-01-17T19:23:58.865Z,86.02
2023-01-17T19:26:27.397Z,85.54
2023-01-17T19:29:05.095Z,85.09
2023-01-17T19:31:35.725Z,85.61
2023-01-17T19:34:02.668Z,85.70
2023-01-17T19:36:34.434Z,86.04
2023-01-17T19:39:05.399Z,86.62
2023-01-17T19:41:35.066Z,86.79
2023-01-17T19:44:06.701Z,86.62
2023-01-17T19:46:34.309Z,86.03
2023-01-17T19:49:01.517Z,85.42
2023-01-17T19:51:28.844Z,86.41
2023-01-17T19:53:56.769Z,86.92
2023-01-17T19:56:26.192Z,86.72
2023-01-17T19:58:53.237Z,86.50
2023-01-17T20:01:27.379Z,86.46
2023-01-17T20:03:57.509Z,86.59
2023-01-17T20:06:27.523Z,84.77
2023-01-17T20:08:54.428Z,85.04
2023-01-17T20:11:22.819Z,85.50
2023-01-17T20:13:54.403Z,84.79
2023-01-17T20:16:22.633Z,84.57
2023-01-17T20:18:51.838Z,86.35
2023-01-17T20:21:24.552Z,86.59
2023-01-17T20:23:52.666Z,86.88
2023-01-17T20:26:34.355Z,86.59
2023-01-17T20:29:10.794Z,88.01
2023-01-17T20:31:38.396Z,87.93
2023-01-17T20:34:06.529Z,88.56
2023-01-17T20:36:33.227Z,87.99
2023-01-17T20:39:00.885Z,88.68
2023-01-17T20:41:43.535Z,89.50
2023-01-17T20:44:15.612Z,89.43
2023-01-17T20:46:43.416Z,89.55
2023-01-17T20:49:15.816Z,89.09
2023-01-17T20:51:44.310Z,90.13
2023-01-17T20:54:14.286Z,89.88
2023-01-17T20:56:41.665Z,90.07
2023-01-17T20:59:12.174Z,89.72
2023-01-17T21:01:38.987Z,89.22
2023-01-17T21:04:10.048Z,89.76
2023-01-17T21:06:41.585Z,89.56
2023-01-17T21:09:11.936Z,89.22
2023-01-17T21:11:38.530Z,89.97
2023-01-17T21:14:05.936Z,89.73
2023-01-17T21:16:34.207Z,89.68
2023-01-17T21:19:01.423Z,90.22
2023-01-17T21:21:29.243Z,90.03
2023-01-17T21:23:59.935Z,89.48
2023-01-17T21:26:28.585Z,89.94
2023-01-17T21:28:55.819Z,89.51
2023-01-17T21:31:25.849Z,89.67
2023-01-17T21:33:57.989Z,90.58
2023-01-17T21:36:27.698Z,90.41
2023-01-17T21:38:57.193Z,89.60
2023-01-17T21:41:30.162Z,90.11
2023-01-17T21:44:00.191Z,90.05
2023-01-17T21:46:27.761Z,90.30
2023-01-17T21:48:56.675Z,89.97
2023-01-17T21:51:24.355Z,90.04
2023-01-17T21:53:51.017Z,89.94
2023-01-17T21:56:36.512Z,89.93
2023-01-17T21:59:03.227Z,89.55
2023-01-17T22:01:32.775Z,90.30
2023-01-17T22:04:01.593Z,90.36
2023-01-17T22:06:38.568Z,90.14
2023-01-17T22:09:06.301Z,90.10
2023-01-17T22:11:35.775Z,89.28
2023-01-17T22:14:05.212Z,89.32
2023-01-17T22:16:32.201Z,88.27
2023-01-17T22:18:59.072Z,88.45
2023-01-17T22:21:28.301Z,87.83
2023-01-17T22:23:59.426Z,87.50
2023-01-17T22:26:28.865Z,88.22
2023-01-17T22:28:55.909Z,87.81
2023-01-17T22:31:25.567Z,88.68
2023-01-17T22:33:53.889Z,89.70
2023-01-17T22:36:21.528Z,89.60
2023-01-17T22:38:48.494Z,88.76
2023-01-17T22:41:19.969Z,88.60
2023-01-17T22:43:52.340Z,87.78
2023-01-17T22:46:28.292Z,88.59
2023-01-17T22:48:57.288Z,89.56
2023-01-17T22:51:26.065Z,88.48
2023-01-17T22:53:55.626Z,87.92
2023-01-17T22:56:28.204Z,87.22
2023-01-17T22:58:54.759Z,87.54
2023-01-17T23:01:26.629Z,87.36
2023-01-17T23:03:57.082Z,87.27
2023-01-17T23:06:32.098Z,87.07
2023-01-17T23:09:02.378Z,86.37
2023-01-17T23:11:52.565Z,87.15
2023-01-17T23:14:26.524Z,87.20
2023-01-17T23:17:22.036Z,86.37
2023-01-17T23:19:51.157Z,86.51
2023-01-17T23:22:29.097Z,86.48
2023-01-17T23:25:14.657Z,86.21
2023-01-17T23:28:05.129Z,86.18
2023-01-17T23:30:40.258Z,86.16
2023-01-17T23:33:12.117Z,85.81
2023-01-17T23:35:42.191Z,85.89
2023-01-17T23:38:33.825Z,86.61
2023-01-17T23:41:26.560Z,85.39
2023-01-17T23:43:57.552Z,86.82
2023-01-17T23:46:25.551Z,86.17
2023-01-17T23:48:52.682Z,85.85
2023-01-17T23:51:19.305Z,85.55
2023-01-17T23:53:45.990Z,85.72
2023-01-17T23:56:23.130Z,85.06
2023-01-17T23:58:50.256Z,85.29
